Time;durP1;ratioP1;P1;durP2;ratioP2;P2;SDS_P1;SDS_P2;PMS_P1;PMS_P2;Temp;Humidity;BMP_temperature;BMP_pressure;BME280_temperature;BME280_humidity;BME280_pressure;Samples;Min_cycle;Max_cycle;Signal;HPM_P1;HPM_P2
2022/07/02 00:00:36;;;;;;;;;6.25;6.00;;;;;21.75;39.39;101580.13;2087072;28;47742;-50
2022/07/02 00:01:37;;;;;;;;;6.40;4.40;;;;;21.74;39.37;101575.69;2086494;28;47437;-47
2022/07/02 00:02:42;;;;;;;;;7.40;6.40;;;;;21.74;39.47;101575.69;2086588;28;47598;-51
2022/07/02 00:03:52;;;;;;;;;6.80;6.80;;;;;21.74;39.32;101581.09;2087002;28;47629;-51
2022/07/02 00:05:01;;;;;;;;;8.00;8.00;;;;;21.73;39.00;101582.03;2086881;28;48428;-52
2022/07/02 00:06:03;;;;;;;;;2.40;2.40;;;;;21.72;39.55;101583.88;2086335;28;47820;-50
2022/07/02 00:07:04;;;;;;;;;8.00;8.00;;;;;21.71;39.35;101590.19;2086438;28;47392;-50
2022/07/02 00:08:07;;;;;;;;;8.80;8.80;;;;;21.70;39.07;101585.75;2087103;28;47465;-50
2022/07/02 00:09:08;;;;;;;;;7.20;7.20;;;;;21.70;39.76;101587.59;2086942;28;47972;-51
2022/07/02 00:10:08;;;;;;;;;8.25;7.50;;;;;21.68;39.42;101581.41;2085815;28;47389;-53
2022/07/02 00:11:13;;;;;;;;;9.75;8.75;;;;;21.68;39.63;101586.81;2092355;28;47266;-54
2022/07/02 00:12:13;;;;;;;;;9.80;8.80;;;;;21.67;39.51;101583.22;2080860;28;46392;-48
2022/07/02 00:13:15;;;;;;;;;10.25;9.25;;;;;21.67;39.78;101585.94;2086990;28;48082;-53
2022/07/02 00:14:15;;;;;;;;;11.00;11.00;;;;;21.67;39.62;101585.06;2086555;28;47236;-52
2022/07/02 00:15:16;;;;;;;;;7.50;5.75;;;;;21.66;39.41;101578.78;2086239;28;46672;-49
2022/07/02 00:16:16;;;;;;;;;9.50;9.50;;;;;21.65;39.38;101584.28;2086327;28;47604;-51
2022/07/02 00:17:17;;;;;;;;;8.50;6.75;;;;;21.64;40.05;101582.53;2085980;28;47454;-48
2022/07/02 00:18:19;;;;;;;;;10.25;10.00;;;;;21.62;39.99;101579.91;2086667;28;47462;-47
2022/07/02 00:19:21;;;;;;;;;8.00;8.00;;;;;21.61;40.11;101582.69;2086690;28;47424;-49
2022/07/02 00:20:22;;;;;;;;;9.60;8.80;;;;;21.58;40.01;101575.63;2086790;28;47726;-49
2022/07/02 00:21:23;;;;;;;;;9.00;7.00;;;;;21.58;39.65;101577.44;2087020;28;47556;-50
2022/07/02 00:22:27;;;;;;;;;8.75;8.75;;;;;21.58;40.35;101580.16;2086763;28;48078;-50
2022/07/02 00:23:27;;;;;;;;;8.80;8.20;;;;;21.57;40.05;101583.81;2086927;28;47668;-49
2022/07/02 00:24:28;;;;;;;;;10.00;8.00;;;;;21.55;40.23;101580.31;2086899;28;47646;-52
2022/07/02 00:25:37;;;;;;;;;8.00;8.00;;;;;21.54;40.51;101583.97;2086863;28;47671;-49
2022/07/02 00:26:39;;;;;;;;;7.40;6.60;;;;;21.53;40.13;101580.41;2087116;28;47168;-50
2022/07/02 00:27:42;;;;;;;;;7.00;7.00;;;;;21.52;40.24;101583.19;2087094;28;47779;-53
2022/07/02 00:28:48;;;;;;;;;8.80;7.80;;;;;21.51;40.83;101586.84;2087047;28;47304;-53
2022/07/02 00:29:58;;;;;;;;;8.40;8.00;;;;;21.50;40.42;101594.09;2088583;28;47886;-49
2022/07/02 00:30:58;;;;;;;;;7.20;7.20;;;;;21.48;40.91;101582.50;2087386;28;47469;-49
2022/07/02 00:31:59;;;;;;;;;8.00;8.00;;;;;21.47;40.77;101583.44;2086748;28;47908;-51
2022/07/02 00:33:01;;;;;;;;;7.00;7.00;;;;;21.47;41.09;101585.25;2087045;28;47921;-51
2022/07/02 00:34:02;;;;;;;;;9.80;8.60;;;;;21.44;40.67;101581.75;2086880;28;47474;-51
2022/07/02 00:35:13;;;;;;;;;9.20;8.60;;;;;21.43;41.37;101579.16;2086472;28;47170;-52
2022/07/02 00:36:21;;;;;;;;;8.60;8.60;;;;;21.42;41.44;101585.50;2086482;28;47427;-50
2022/07/02 00:37:23;;;;;;;;;10.40;9.40;;;;;21.41;41.39;101586.47;2086889;28;47921;-50
2022/07/02 00:38:23;;;;;;;;;9.00;8.20;;;;;21.40;41.76;101584.72;2087421;28;47446;-51
2022/07/02 00:39:24;;;;;;;;;7.50;7.50;;;;;21.38;41.05;101581.22;2088473;28;47217;-49
2022/07/02 00:40:25;;;;;;;;;10.00;10.00;;;;;21.38;41.32;101576.69;2088312;28;47155;-51
2022/07/02 00:41:27;;;;;;;;;10.20;9.00;;;;;21.37;41.79;101574.97;2087966;28;47292;-49
2022/07/02 00:42:30;;;;;;;;;8.00;6.60;;;;;21.36;41.78;101575.03;2079644;28;48059;-48
2022/07/02 00:43:31;;;;;;;;;8.00;8.00;;;;;21.36;41.73;101580.44;2087674;28;47756;-51
2022/07/02 00:44:32;;;;;;;;;6.80;6.60;;;;;21.35;42.10;101578.69;2088101;28;47964;-50
2022/07/02 00:45:34;;;;;;;;;8.40;8.20;;;;;21.34;41.45;101576.91;2096119;28;47555;-51
2022/07/02 00:46:36;;;;;;;;;9.40;9.00;;;;;21.32;42.29;101576.13;2093667;28;46747;-51
2022/07/02 00:47:41;;;;;;;;;6.80;6.00;;;;;21.30;41.53;101573.53;2086819;28;48318;-49
2022/07/02 00:48:43;;;;;;;;;6.00;5.60;;;;;21.31;41.76;101585.19;2078462;28;48075;-50
2022/07/02 00:49:43;;;;;;;;;6.60;6.60;;;;;21.30;41.81;101575.34;2079393;28;47932;-50
2022/07/02 00:50:43;;;;;;;;;6.00;6.00;;;;;21.29;42.13;101570.91;2088188;28;47650;-50
2022/07/02 00:51:44;;;;;;;;;6.25;5.00;;;;;21.29;42.65;101574.47;2080247;28;47839;-50
2022/07/02 00:52:44;;;;;;;;;6.50;6.50;;;;;21.28;42.05;101574.56;2083381;28;47859;-52
2022/07/02 00:53:45;;;;;;;;;6.00;6.00;;;;;21.27;42.66;101576.38;2088077;28;47643;-49
2022/07/02 00:54:45;;;;;;;;;6.25;6.25;;;;;21.25;42.35;101572.91;2087009;28;47504;-48
2022/07/02 00:55:54;;;;;;;;;11.25;7.25;;;;;21.25;42.88;101570.19;2081300;28;47482;-51
2022/07/02 00:56:55;;;;;;;;;7.80;6.60;;;;;21.25;42.85;101572.00;2087971;28;47418;-49
2022/07/02 00:57:56;;;;;;;;;7.25;6.25;;;;;21.23;42.46;101563.97;2087966;28;48016;-48
2022/07/02 00:58:57;;;;;;;;;6.40;6.00;;;;;21.23;42.39;101563.13;2088291;28;47755;-49
2022/07/02 00:59:57;;;;;;;;;8.00;7.00;;;;;21.21;42.66;101560.47;2087858;28;47708;-49
2022/07/02 01:00:58;;;;;;;;;5.75;5.75;;;;;21.21;43.10;101565.84;2088243;28;46796;-48
2022/07/02 01:02:00;;;;;;;;;5.20;5.20;;;;;21.20;42.97;101565.94;2088460;28;47631;-49
2022/07/02 01:03:02;;;;;;;;;6.00;5.00;;;;;21.19;42.99;101558.81;2088130;28;48175;-50
2022/07/02 01:04:05;;;;;;;;;6.20;6.20;;;;;21.17;43.34;101561.59;2088249;28;47442;-50
2022/07/02 01:05:06;;;;;;;;;6.80;6.80;;;;;21.16;42.93;101563.41;2088393;28;47946;-50
2022/07/02 01:06:07;;;;;;;;;6.60;6.60;;;;;21.16;42.59;101562.53;2088199;28;47874;-52
2022/07/02 01:07:12;;;;;;;;;6.00;5.50;;;;;21.15;42.96;101560.81;2088163;28;47706;-47
2022/07/02 01:11:06;;;;;;;;;6.00;6.00;;;;;21.08;43.21;101554.84;2088045;28;47548;-48
2022/07/02 01:12:08;;;;;;;;;8.60;8.60;;;;;21.06;43.73;101563.97;2087249;28;48133;-49
2022/07/02 01:13:10;;;;;;;;;5.40;5.40;;;;;21.05;43.64;101563.09;2088367;28;47811;-49
2022/07/02 01:14:11;;;;;;;;;4.00;4.00;;;;;21.05;43.38;101563.09;2088259;28;47989;-52
2022/07/02 01:15:13;;;;;;;;;7.60;7.60;;;;;21.03;43.36;101558.75;2088719;28;45332;-47
2022/07/02 01:16:13;;;;;;;;;7.00;7.00;;;;;21.02;43.57;101563.25;2086377;28;47893;-50
2022/07/02 01:17:14;;;;;;;;;6.00;5.00;;;;;21.01;44.09;101566.91;2088032;28;47673;-49
2022/07/02 01:18:17;;;;;;;;;5.75;5.75;;;;;21.00;43.83;101567.88;2088136;28;47232;-48
2022/07/02 01:19:19;;;;;;;;;7.20;6.60;;;;;20.99;43.32;101560.72;2088012;28;47475;-48
2022/07/02 01:20:20;;;;;;;;;7.00;6.00;;;;;20.99;43.63;101559.88;2093438;28;48076;-49
2022/07/02 01:21:20;;;;;;;;;7.25;7.00;;;;;20.98;44.13;101571.59;2095525;28;47924;-52
2022/07/02 01:22:22;;;;;;;;;6.00;6.00;;;;;20.97;44.28;101565.34;2087377;28;47365;-49
2022/07/02 01:23:22;;;;;;;;;6.40;5.80;;;;;20.97;43.87;101570.75;2088136;28;47883;-51
2022/07/02 01:24:24;;;;;;;;;2.75;2.75;;;;;20.96;44.31;101569.00;2087291;28;47875;-48
2022/07/02 01:25:24;;;;;;;;;10.00;7.00;;;;;20.95;44.31;101569.03;2087390;28;47856;-46
2022/07/02 01:26:25;;;;;;;;;6.50;6.50;;;;;20.94;44.06;101567.31;2088148;28;47324;-48
2022/07/02 01:27:25;;;;;;;;;3.00;2.25;;;;;20.93;44.22;101573.66;2086710;28;47912;-51
2022/07/02 01:28:26;;;;;;;;;5.00;5.00;;;;;20.92;44.67;101575.47;2086832;28;48279;-51
2022/07/02 01:29:26;;;;;;;;;7.00;7.00;;;;;20.92;44.51;101569.22;2070320;28;47456;-49
2022/07/02 01:30:27;;;;;;;;;4.00;4.00;;;;;20.91;44.54;101579.13;2079155;28;46315;-47
2022/07/02 01:31:27;;;;;;;;;6.00;5.00;;;;;20.91;44.23;101576.44;2088025;28;47943;-49
2022/07/02 01:32:28;;;;;;;;;15.25;13.25;;;;;20.90;44.85;101577.38;2087767;28;47682;-50
2022/07/02 01:33:28;;;;;;;;;6.50;6.50;;;;;20.88;44.68;101568.50;2088168;28;47746;-49
2022/07/02 01:34:33;;;;;;;;;8.50;8.50;;;;;20.86;44.50;101579.38;2088019;28;47885;-49
2022/07/02 01:35:34;;;;;;;;;6.80;6.80;;;;;20.84;44.69;101575.00;2087740;28;45826;-47
2022/07/02 01:36:35;;;;;;;;;7.00;7.00;;;;;20.84;44.86;101581.28;2087532;28;47924;-49
2022/07/02 01:37:39;;;;;;;;;7.00;7.00;;;;;20.83;44.92;101578.63;2088227;28;47360;-52
2022/07/02 01:38:39;;;;;;;;;10.60;10.60;;;;;20.82;45.15;101574.19;2078462;28;47739;-50
2022/07/02 01:39:41;;;;;;;;;5.25;5.25;;;;;20.81;44.76;101578.72;2078546;28;47805;-51
2022/07/02 01:40:42;;;;;;;;;7.40;7.40;;;;;20.81;44.74;101580.53;2088052;28;47907;-48
2022/07/02 01:41:42;;;;;;;;;7.75;6.75;;;;;20.79;45.07;101582.44;2088044;28;47603;-52
2022/07/02 01:42:43;;;;;;;;;8.50;7.25;;;;;20.79;44.90;101572.53;2078365;28;45816;-51
2022/07/02 01:43:43;;;;;;;;;5.75;5.75;;;;;20.78;45.35;101580.72;2078537;28;47605;-49
2022/07/02 01:44:45;;;;;;;;;7.25;7.00;;;;;20.77;45.25;101582.53;2078716;28;47607;-53
2022/07/02 01:45:46;;;;;;;;;4.40;4.40;;;;;20.76;45.28;101579.91;2078596;28;47797;-46
2022/07/02 01:46:46;;;;;;;;;4.00;4.00;;;;;20.75;44.96;101576.34;2078659;28;47603;-52
2022/07/02 01:47:47;;;;;;;;;5.00;4.00;;;;;20.75;44.88;101573.66;2078424;28;46622;-48
2022/07/02 01:48:47;;;;;;;;;3.00;3.00;;;;;20.76;45.45;101586.19;2078860;28;47767;-53
2022/07/02 01:49:47;;;;;;;;;4.50;4.50;;;;;20.75;45.18;101578.16;2078275;28;47669;-48
2022/07/02 01:50:48;;;;;;;;;3.75;3.75;;;;;20.75;45.64;101578.16;2078602;28;47750;-51
2022/07/02 01:51:48;;;;;;;;;4.00;4.00;;;;;20.74;45.34;101576.44;2078742;28;47611;-52
2022/07/02 01:52:50;;;;;;;;;5.50;4.00;;;;;20.72;45.72;101581.91;2078467;28;47218;-49
2022/07/02 01:53:51;;;;;;;;;3.20;3.20;;;;;20.72;45.19;101581.03;2078405;28;47530;-52
2022/07/02 01:54:52;;;;;;;;;6.00;5.25;;;;;20.71;45.28;101577.47;2078151;28;47599;-51
2022/07/02 01:55:52;;;;;;;;;4.50;4.50;;;;;20.69;45.44;101573.94;2078319;28;47471;-50
2022/07/02 01:56:53;;;;;;;;;4.00;4.00;;;;;20.69;45.87;101583.84;2078634;28;48134;-51
2022/07/02 01:57:54;;;;;;;;;4.50;4.50;;;;;20.68;45.29;101577.59;2076958;28;46317;-52
2022/07/02 01:58:54;;;;;;;;;5.50;5.00;;;;;20.67;45.76;101583.06;2079065;28;47357;-52
2022/07/02 01:59:55;;;;;;;;;4.00;4.00;;;;;20.66;45.65;101586.72;2078444;28;48005;-52
2022/07/02 02:00:55;;;;;;;;;6.50;5.00;;;;;20.65;45.74;101574.19;2078661;28;47236;-50
2022/07/02 02:01:56;;;;;;;;;3.50;3.25;;;;;20.66;45.25;101578.63;2078473;28;47353;-51
2022/07/02 02:02:56;;;;;;;;;4.00;4.00;;;;;20.66;45.53;101578.63;2078201;28;47479;-51
2022/07/02 02:03:57;;;;;;;;;6.25;5.00;;;;;20.65;45.62;101582.28;2078375;28;47527;-49
2022/07/02 02:04:57;;;;;;;;;5.75;5.75;;;;;20.62;45.71;101575.22;2070505;28;47979;-52
2022/07/02 02:05:57;;;;;;;;;4.50;4.50;;;;;20.61;45.54;101583.38;2073535;28;47694;-51
2022/07/02 02:07:00;;;;;;;;;5.00;3.75;;;;;20.60;45.41;101577.13;2078850;28;47876;-51
2022/07/02 02:08:00;;;;;;;;;4.20;4.20;;;;;20.59;45.84;101572.69;2078458;28;47405;-51
2022/07/02 02:09:00;;;;;;;;;4.75;4.75;;;;;20.60;45.86;101576.25;2078396;28;47793;-50
2022/07/02 02:10:01;;;;;;;;;4.00;4.00;;;;;20.57;46.12;101569.16;2078297;28;47786;-51
2022/07/02 02:11:01;;;;;;;;;6.00;6.00;;;;;20.56;45.71;101570.97;2078644;28;47426;-50
2022/07/02 02:12:02;;;;;;;;;6.75;6.00;;;;;20.55;45.89;101571.06;2070269;28;47195;-49
2022/07/02 02:13:02;;;;;;;;;4.00;3.50;;;;;20.55;46.05;101574.63;2070324;28;47370;-47
2022/07/02 02:14:03;;;;;;;;;5.50;4.75;;;;;20.54;45.99;101575.59;2079451;28;47766;-51
2022/07/02 02:15:05;;;;;;;;;6.25;6.25;;;;;20.55;46.25;101581.84;2087918;28;47419;-52
2022/07/02 02:16:05;;;;;;;;;5.60;5.60;;;;;20.54;45.99;101569.31;2087608;28;47799;-50
2022/07/02 02:17:05;;;;;;;;;5.00;4.50;;;;;20.52;46.22;101571.22;2087735;28;47867;-50
2022/07/02 02:18:06;;;;;;;;;6.00;4.75;;;;;20.50;45.84;101563.22;2087462;28;47823;-50
2022/07/02 02:19:07;;;;;;;;;5.00;5.00;;;;;20.49;46.37;101571.38;2087701;28;47263;-53
2022/07/02 02:20:08;;;;;;;;;5.25;5.25;;;;;20.48;46.73;101566.94;2087896;28;47223;-51
2022/07/02 02:21:08;;;;;;;;;7.60;6.00;;;;;20.46;46.32;101569.72;2087182;28;47486;-50
2022/07/02 02:22:09;;;;;;;;;6.75;6.75;;;;;20.45;46.13;101561.69;2087067;28;48083;-51
2022/07/02 02:23:09;;;;;;;;;5.00;4.00;;;;;20.44;46.60;101563.50;2087537;28;47340;-50
2022/07/02 02:24:09;;;;;;;;;5.75;4.75;;;;;20.44;46.23;101563.50;2087784;28;47379;-48
2022/07/02 02:25:10;;;;;;;;;3.75;3.75;;;;;20.41;46.85;101554.66;2087656;28;47299;-48
2022/07/02 02:26:10;;;;;;;;;4.50;4.50;;;;;20.40;46.64;101556.50;2087823;28;48039;-52
2022/07/02 02:27:11;;;;;;;;;5.00;5.00;;;;;20.39;46.49;101556.56;2087433;28;46705;-53
2022/07/02 02:28:11;;;;;;;;;5.50;4.75;;;;;20.39;46.89;101560.13;2087743;28;47574;-49
2022/07/02 02:29:12;;;;;;;;;2.00;2.00;;;;;20.39;46.49;101553.88;2087887;28;48044;-51
2022/07/02 02:30:13;;;;;;;;;6.00;6.00;;;;;20.39;46.27;101557.44;2089728;28;47314;-48
2022/07/02 02:31:14;;;;;;;;;6.40;6.00;;;;;20.39;46.91;101561.97;2087475;28;46565;-50
2022/07/02 02:32:16;;;;;;;;;5.75;5.75;;;;;20.37;46.77;101553.94;2087559;28;47388;-51
2022/07/02 02:33:16;;;;;;;;;4.00;4.00;;;;;20.39;46.91;101556.56;2087554;28;47620;-51
2022/07/02 02:34:17;;;;;;;;;7.00;7.00;;;;;20.39;46.97;101556.56;2087918;28;47925;-50
2022/07/02 02:35:18;;;;;;;;;5.00;5.00;;;;;20.39;46.96;101554.75;2087505;28;47865;-52
2022/07/02 02:36:18;;;;;;;;;8.25;5.50;;;;;20.39;46.81;101560.13;2087823;28;47981;-50
2022/07/02 02:37:19;;;;;;;;;5.00;5.00;;;;;20.38;46.57;101555.69;2087193;28;47820;-51
2022/07/02 02:38:19;;;;;;;;;6.75;6.75;;;;;20.37;46.87;101556.66;2085952;28;47658;-51
2022/07/02 02:39:20;;;;;;;;;6.00;5.00;;;;;20.38;47.12;101549.44;2086391;28;47816;-48
2022/07/02 02:40:20;;;;;;;;;5.00;4.25;;;;;20.38;46.51;101560.22;2087584;28;48556;-51
2022/07/02 02:41:21;;;;;;;;;6.00;6.00;;;;;20.37;46.43;101559.34;2087215;28;47762;-52
2022/07/02 02:42:21;;;;;;;;;6.00;6.00;;;;;20.37;46.52;101556.66;2087587;28;47926;-50
2022/07/02 02:43:22;;;;;;;;;5.00;4.00;;;;;20.36;46.79;101549.50;2087554;28;46524;-48
2022/07/02 02:44:22;;;;;;;;;6.50;6.50;;;;;20.37;46.83;101550.38;2087815;28;47583;-52
2022/07/02 02:45:22;;;;;;;;;4.50;4.00;;;;;20.36;46.70;101554.03;2087632;28;47541;-49
2022/07/02 02:46:23;;;;;;;;;4.50;4.25;;;;;20.34;46.71;101554.09;2085311;28;47773;-50
2022/07/02 02:47:23;;;;;;;;;5.50;5.50;;;;;20.33;46.79;101551.47;2087623;28;47544;-52
2022/07/02 02:48:23;;;;;;;;;6.50;6.50;;;;;20.33;46.93;101551.47;2087551;28;47377;-50
2022/07/02 02:49:24;;;;;;;;;5.00;5.00;;;;;20.31;47.12;101543.44;2087387;28;47136;-49
2022/07/02 02:50:25;;;;;;;;;5.25;5.25;;;;;20.31;47.30;101547.97;2087768;28;47628;-49
2022/07/02 02:51:25;;;;;;;;;6.00;6.00;;;;;20.30;47.02;101555.19;2087780;28;47339;-51
2022/07/02 02:52:26;;;;;;;;;6.25;6.25;;;;;20.29;47.20;101545.34;2087453;28;47978;-51
2022/07/02 02:53:26;;;;;;;;;9.00;7.50;;;;;20.27;46.95;101544.56;2087543;28;46003;-52
2022/07/02 02:54:26;;;;;;;;;5.25;5.25;;;;;20.26;46.97;101548.22;2087073;28;47244;-51
2022/07/02 02:55:27;;;;;;;;;8.00;6.75;;;;;20.25;47.01;101546.47;2080828;28;47381;-51
2022/07/02 02:56:27;;;;;;;;;8.00;6.25;;;;;20.25;47.53;101544.63;2086691;28;47376;-52
2022/07/02 02:57:28;;;;;;;;;6.25;5.50;;;;;20.24;47.41;101548.28;2087358;28;47232;-49
2022/07/02 02:58:28;;;;;;;;;6.75;6.00;;;;;20.23;47.41;101549.25;2087527;28;47596;-50
2022/07/02 02:59:29;;;;;;;;;6.00;6.00;;;;;20.24;47.22;101552.81;2087284;28;47899;-46
2022/07/02 03:00:29;;;;;;;;;4.00;4.00;;;;;20.23;47.41;101551.94;2087517;28;48000;-51
2022/07/02 03:01:30;;;;;;;;;8.00;7.00;;;;;20.21;47.48;101548.44;2086775;28;47659;-52
2022/07/02 03:02:30;;;;;;;;;5.25;5.25;;;;;20.23;47.40;101553.75;2087401;28;47355;-49
2022/07/02 03:03:31;;;;;;;;;6.00;6.00;;;;;20.22;47.42;101552.00;2087643;28;47782;-49
2022/07/02 03:04:31;;;;;;;;;5.25;5.25;;;;;20.22;47.22;101554.72;2094347;28;46994;-50
2022/07/02 03:05:32;;;;;;;;;5.25;5.25;;;;;20.21;47.70;101559.22;2094929;28;47921;-52
2022/07/02 03:06:32;;;;;;;;;7.50;7.50;;;;;20.20;47.09;101551.19;2087699;28;47802;-51
2022/07/02 03:07:34;;;;;;;;;3.25;3.25;;;;;20.19;47.52;101553.00;2086789;28;47898;-48
2022/07/02 03:08:34;;;;;;;;;9.20;8.00;;;;;20.19;47.69;101550.31;2086814;28;47964;-50
2022/07/02 03:09:35;;;;;;;;;6.00;6.00;;;;;20.19;47.67;101550.31;2087377;28;47704;-51
2022/07/02 03:10:35;;;;;;;;;6.50;4.75;;;;;20.19;47.70;101544.06;2087189;28;47618;-50
2022/07/02 03:11:36;;;;;;;;;5.00;5.00;;;;;20.19;47.46;101549.44;2087606;28;47736;-53
2022/07/02 03:12:36;;;;;;;;;3.00;2.75;;;;;20.18;47.69;101547.69;2087236;28;47843;-48
2022/07/02 03:13:36;;;;;;;;;8.50;7.25;;;;;20.17;47.42;101554.03;2087458;28;47585;-49
2022/07/02 03:14:37;;;;;;;;;6.00;6.00;;;;;20.16;47.37;101549.59;2087108;28;47628;-51
2022/07/02 03:15:37;;;;;;;;;7.00;7.00;;;;;20.16;47.72;101555.84;2087363;28;47801;-52
2022/07/02 03:16:38;;;;;;;;;6.00;4.75;;;;;20.16;47.64;101555.84;2087379;28;47999;-52
2022/07/02 03:17:38;;;;;;;;;6.25;6.25;;;;;20.16;47.54;101553.16;2087211;28;47327;-50
2022/07/02 03:18:39;;;;;;;;;7.00;6.25;;;;;20.16;47.26;101549.59;2087260;28;47628;-52
2022/07/02 03:19:39;;;;;;;;;6.50;6.50;;;;;20.13;47.42;101556.00;2087282;28;47480;-48
2022/07/02 03:20:39;;;;;;;;;10.75;8.75;;;;;20.13;47.31;101558.72;2090079;28;47576;-50
2022/07/02 03:21:40;;;;;;;;;6.75;6.75;;;;;20.12;47.58;101548.00;2087279;28;47837;-51
2022/07/02 03:22:40;;;;;;;;;7.50;6.25;;;;;20.11;47.95;101554.34;2086976;28;47590;-48
2022/07/02 03:23:41;;;;;;;;;7.00;6.00;;;;;20.10;47.85;101558.88;2087103;28;47444;-50
2022/07/02 03:24:41;;;;;;;;;8.25;7.50;;;;;20.09;47.76;101561.63;2087340;28;47940;-51
2022/07/02 03:25:41;;;;;;;;;8.00;7.00;;;;;20.09;48.06;101558.94;2087129;28;47611;-49
2022/07/02 03:26:42;;;;;;;;;8.25;8.25;;;;;20.08;47.54;101557.19;2087144;28;47322;-50
2022/07/02 03:27:42;;;;;;;;;8.50;8.50;;;;;20.08;47.72;101558.06;2085814;28;47400;-52
2022/07/02 03:28:42;;;;;;;;;7.00;7.00;;;;;20.07;48.07;101558.13;2088796;28;47239;-51
2022/07/02 03:29:43;;;;;;;;;7.50;7.50;;;;;20.06;47.84;101556.38;2088575;28;47497;-52
2022/07/02 03:30:43;;;;;;;;;9.25;8.00;;;;;20.06;47.64;101561.75;2087895;28;47572;-48
2022/07/02 03:31:44;;;;;;;;;8.25;8.25;;;;;20.05;48.23;101549.22;2087207;28;47931;-51
2022/07/02 03:32:44;;;;;;;;;8.00;7.75;;;;;20.04;48.47;101552.88;2077773;28;47162;-51
2022/07/02 03:33:44;;;;;;;;;7.25;6.50;;;;;20.02;47.90;101552.97;2080300;28;47747;-49
2022/07/02 03:34:45;;;;;;;;;5.00;5.00;;;;;20.03;47.90;101554.69;2080340;28;48111;-51
2022/07/02 03:35:45;;;;;;;;;6.25;6.00;;;;;20.02;48.16;101555.66;2087212;28;47359;-49
2022/07/02 03:36:46;;;;;;;;;6.25;5.50;;;;;20.01;48.28;101553.03;2087261;28;47952;-52
2022/07/02 03:37:46;;;;;;;;;7.25;7.25;;;;;20.00;48.17;101546.78;2086579;28;47899;-52
2022/07/02 03:38:46;;;;;;;;;7.50;7.25;;;;;19.99;48.12;101548.59;2086578;28;47858;-47
2022/07/02 03:39:47;;;;;;;;;6.25;6.25;;;;;19.98;48.12;101546.84;2087346;28;47165;-51
2022/07/02 03:40:47;;;;;;;;;6.00;5.25;;;;;19.97;47.85;101550.50;2087476;28;47629;-50
2022/07/02 03:41:48;;;;;;;;;7.50;6.75;;;;;19.98;48.51;101545.97;2087257;28;47338;-49
2022/07/02 03:42:48;;;;;;;;;7.50;6.75;;;;;19.98;48.24;101549.53;2086064;28;47684;-50
2022/07/02 03:43:51;;;;;;;;;7.75;7.00;;;;;19.98;48.10;101545.97;2085952;28;47416;-52
2022/07/02 03:44:52;;;;;;;;;6.80;5.80;;;;;19.98;48.53;101546.84;2087124;28;47840;-49
2022/07/02 03:45:52;;;;;;;;;6.75;6.25;;;;;19.97;48.19;101547.78;2084787;28;47846;-48
2022/07/02 03:46:53;;;;;;;;;7.50;7.50;;;;;19.98;48.53;101551.38;2084591;28;47243;-52
2022/07/02 03:47:53;;;;;;;;;7.25;6.00;;;;;19.97;48.15;101552.31;2092169;28;47869;-51
2022/07/02 03:48:53;;;;;;;;;8.00;7.00;;;;;19.97;48.65;101555.88;2094911;28;47573;-50
2022/07/02 03:49:54;;;;;;;;;9.00;7.00;;;;;19.96;48.36;101551.44;2087094;28;47516;-54
2022/07/02 03:50:54;;;;;;;;;7.00;7.00;;;;;19.96;48.25;101556.84;2087179;28;47789;-51
2022/07/02 03:51:55;;;;;;;;;8.25;7.50;;;;;19.96;48.61;101555.97;2087452;28;47551;-48
2022/07/02 03:52:55;;;;;;;;;8.75;8.75;;;;;19.96;48.78;101558.66;2087208;28;48016;-51
2022/07/02 03:53:56;;;;;;;;;7.00;6.50;;;;;19.96;48.51;101561.34;2086702;28;47093;-50
2022/07/02 03:54:56;;;;;;;;;7.75;7.50;;;;;19.98;48.23;101556.75;2082223;28;47380;-50
2022/07/02 03:55:57;;;;;;;;;7.00;7.00;;;;;19.96;48.39;101559.53;2082093;28;48210;-51
2022/07/02 03:56:57;;;;;;;;;9.00;6.50;;;;;19.97;48.24;101555.00;2087387;28;47450;-50
2022/07/02 03:57:58;;;;;;;;;7.25;7.25;;;;;19.99;48.37;101555.81;2086998;28;48240;-52
2022/07/02 03:58:59;;;;;;;;;6.00;5.00;;;;;19.99;48.18;101550.41;2087219;28;47444;-50
2022/07/02 03:59:59;;;;;;;;;8.75;8.75;;;;;19.99;48.41;101555.81;2087322;28;47493;-50
2022/07/02 04:00:59;;;;;;;;;10.25;10.25;;;;;19.99;48.03;101550.41;2086389;28;47777;-50
2022/07/02 04:02:00;;;;;;;;;8.50;7.25;;;;;19.99;48.44;101563.88;2086464;28;47807;-50
2022/07/02 04:03:00;;;;;;;;;10.00;10.00;;;;;19.98;47.99;101552.25;2086691;28;47516;-51
2022/07/02 04:04:01;;;;;;;;;5.25;5.00;;;;;19.99;47.94;101555.81;2087293;28;47546;-52
2022/07/02 04:05:02;;;;;;;;;8.75;8.75;;;;;19.99;48.08;101555.81;2087047;28;47876;-51
2022/07/02 04:06:02;;;;;;;;;7.25;7.25;;;;;19.99;48.25;101561.19;2086549;28;47294;-48
2022/07/02 04:07:03;;;;;;;;;7.67;7.67;;;;;19.98;48.15;101552.25;2086573;28;48025;-47
2022/07/02 04:08:04;;;;;;;;;8.25;8.25;;;;;19.98;48.20;101554.06;2085618;28;47544;-48
2022/07/02 04:09:04;;;;;;;;;9.00;7.00;;;;;19.97;48.07;101550.50;2085698;28;47843;-51
2022/07/02 04:10:05;;;;;;;;;10.00;8.50;;;;;19.98;47.77;101551.38;2087235;28;47372;-49
2022/07/02 04:11:06;;;;;;;;;7.00;7.00;;;;;19.99;48.09;101559.38;2086852;28;47719;-52
2022/07/02 04:12:07;;;;;;;;;8.00;8.00;;;;;20.00;47.84;101552.16;2087207;28;47979;-49
2022/07/02 04:13:08;;;;;;;;;8.00;7.00;;;;;20.01;47.54;101550.34;2086852;28;48162;-50
2022/07/02 04:14:09;;;;;;;;;7.00;6.25;;;;;20.02;47.46;101549.38;2086818;28;47209;-50
2022/07/02 04:15:09;;;;;;;;;9.75;8.00;;;;;20.02;47.71;101544.88;2087199;28;47558;-53
2022/07/02 04:16:10;;;;;;;;;7.00;7.00;;;;;20.02;47.73;101555.66;2086802;28;47484;-53
2022/07/02 04:17:10;;;;;;;;;8.25;7.75;;;;;20.02;47.59;101550.25;2086999;28;47995;-51
2022/07/02 04:18:11;;;;;;;;;8.67;7.00;;;;;20.02;47.14;101547.56;2086491;28;47599;-48
2022/07/02 04:19:11;;;;;;;;;8.75;6.75;;;;;20.02;47.68;101550.25;2085347;28;47736;-48
2022/07/02 04:20:11;;;;;;;;;9.00;8.00;;;;;20.02;47.38;101552.97;2094505;28;47986;-50
2022/07/02 04:21:12;;;;;;;;;7.50;7.50;;;;;20.02;47.42;101554.78;2086872;28;47476;-49
2022/07/02 04:22:13;;;;;;;;;9.25;8.75;;;;;20.02;48.04;101550.25;2086892;28;47706;-52
2022/07/02 04:23:13;;;;;;;;;10.75;8.00;;;;;20.00;47.75;101554.84;2086946;28;47424;-51
2022/07/02 04:24:14;;;;;;;;;10.25;10.25;;;;;20.01;47.91;101564.69;2086684;28;47115;-52
2022/07/02 04:25:14;;;;;;;;;7.33;7.33;;;;;19.99;47.38;101558.50;2086908;28;47615;-47
2022/07/02 04:26:14;;;;;;;;;7.33;7.33;;;;;19.96;47.79;101554.13;2087018;28;47980;-50
2022/07/02 04:27:15;;;;;;;;;8.00;8.00;;;;;19.97;48.24;101555.88;2086934;28;47457;-49
2022/07/02 04:28:15;;;;;;;;;8.50;8.50;;;;;19.97;47.76;101560.41;2087069;28;47720;-49
2022/07/02 04:29:15;;;;;;;;;1.67;1.67;;;;;19.95;47.98;101560.47;2086995;28;47604;-49
2022/07/02 04:30:16;;;;;;;;;6.75;6.75;;;;;19.96;47.86;101561.34;2089065;28;47663;-50
2022/07/02 04:31:16;;;;;;;;;8.25;7.50;;;;;19.95;47.93;101557.78;2087084;28;47901;-52
2022/07/02 04:32:17;;;;;;;;;7.50;7.50;;;;;19.95;48.10;101555.09;2087028;28;47136;-50
2022/07/02 04:33:17;;;;;;;;;8.00;7.00;;;;;19.95;48.44;101560.47;2085757;28;47444;-53
2022/07/02 04:34:18;;;;;;;;;7.25;7.00;;;;;19.95;47.81;101565.00;2085915;28;48009;-50
2022/07/02 04:35:18;;;;;;;;;8.50;7.75;;;;;19.95;48.02;101556.91;2084799;28;47890;-52
2022/07/02 04:36:19;;;;;;;;;7.25;7.25;;;;;19.95;48.63;101565.84;2086908;28;47792;-52
2022/07/02 04:37:19;;;;;;;;;7.50;7.50;;;;;19.95;48.44;101555.09;2094099;28;47640;-49
2022/07/02 04:38:19;;;;;;;;;8.75;7.50;;;;;19.97;48.18;101565.78;2093745;28;46965;-51
2022/07/02 04:39:20;;;;;;;;;8.00;8.00;;;;;19.97;48.55;101560.41;2086983;28;47811;-48
2022/07/02 04:40:20;;;;;;;;;7.25;7.25;;;;;19.97;48.27;101553.19;2086898;28;47917;-50
2022/07/02 04:41:20;;;;;;;;;8.00;8.00;;;;;19.97;48.55;101561.28;2086855;28;47671;-48
2022/07/02 04:42:21;;;;;;;;;8.50;8.00;;;;;19.98;48.72;101554.06;2087029;28;46617;-49
2022/07/02 04:43:21;;;;;;;;;7.00;5.75;;;;;19.98;48.66;101560.31;2086928;28;47699;-48
2022/07/02 04:44:22;;;;;;;;;9.00;8.00;;;;;19.99;48.89;101555.81;2086980;28;47576;-50
2022/07/02 04:45:22;;;;;;;;;9.75;8.50;;;;;19.98;48.19;101554.06;2085588;28;47297;-53
2022/07/02 04:46:22;;;;;;;;;10.00;9.00;;;;;20.00;48.30;101552.16;2088181;28;47487;-49